Terminal Aerodrome Forecast
Issued by NWS

Home | Current Version | Previous Version | Text Only | Print | Product List | Glossary On
Versions: 1 2 3 4 5 6 7 8 9 10 11 12 13 14 15 16 17 18
342
FTUS41 KBTV 250215 AAA
TAFSLK
TAF AMD
KSLK 250215Z 2502/2524 15005KT P6SM VCTS BKN025CB OVC030
      TEMPO 2502/2503 3SM -TSRA BR SCT010 BKN020CB
     FM250600 VRB03KT 2SM -SHRA BR BKN008 OVC015
      TEMPO 2507/2511 3/4SM RA BR BKN003
     FM251100 08005KT 3SM BR VCSH SCT008 OVC015
     FM251400 07005KT P6SM VCSH BKN015 OVC025
     FM252100 06005KT P6SM BKN045=

USA.gov is the U.S. government's official web portal to all federal, state and local government web resources and services.